createdAt,value
2023-03-15T00:02:22.208Z,0.52
2023-03-15T00:07:25.952Z,0.48
2023-03-15T00:12:29.951Z,0.47
2023-03-15T00:17:32.251Z,0.41
2023-03-15T00:22:35.683Z,0.57
2023-03-15T00:27:37.866Z,0.46
2023-03-15T00:32:39.792Z,0.54
2023-03-15T00:37:45.335Z,0.54
2023-03-15T00:42:47.405Z,0.47
2023-03-15T00:47:50.103Z,0.37
2023-03-15T00:52:53.880Z,0.34
2023-03-15T00:57:57.083Z,0.33
2023-03-15T01:02:59.338Z,0.27
2023-03-15T01:08:02.646Z,0.23
2023-03-15T01:13:04.713Z,0.18
2023-03-15T01:18:07.070Z,0.07
2023-03-15T01:23:10.141Z,0.02
2023-03-15T01:28:12.078Z,0.02
2023-03-15T01:33:13.990Z,-0.15
2023-03-15T01:38:17.776Z,-0.24
2023-03-15T01:43:21.977Z,-0.34
2023-03-15T01:48:28.136Z,-0.45
2023-03-15T01:53:33.200Z,-0.56
2023-03-15T01:58:38.692Z,-0.56
2023-03-15T02:03:45.023Z,-0.52
2023-03-15T02:08:52.096Z,-0.64
2023-03-15T02:13:56.401Z,-0.60
2023-03-15T02:18:58.949Z,-0.63
2023-03-15T02:24:12.620Z,-0.50
2023-03-15T02:29:16.456Z,-0.47
2023-03-15T02:34:18.585Z,-0.47
2023-03-15T02:39:22.085Z,-0.53
2023-03-15T02:44:29.202Z,-0.45
2023-03-15T02:49:35.889Z,-0.44
2023-03-15T02:54:37.992Z,-0.38
2023-03-15T02:59:41.612Z,-0.28
2023-03-15T03:04:43.698Z,-0.30
2023-03-15T03:09:45.862Z,-0.31
2023-03-15T03:14:49.426Z,-0.19
2023-03-15T03:19:51.803Z,-0.19
2023-03-15T03:24:53.866Z,-0.21
2023-03-15T03:29:57.404Z,-0.32
2023-03-15T03:34:59.692Z,-0.35
2023-03-15T03:40:01.779Z,-0.44
2023-03-15T03:45:07.994Z,-0.59
2023-03-15T03:50:11.641Z,-0.62
2023-03-15T03:55:14.013Z,-0.68
2023-03-15T04:00:21.569Z,-0.64
2023-03-15T04:05:25.525Z,-0.60
2023-03-15T04:10:28.741Z,-0.56
2023-03-15T04:15:33.709Z,-0.58
2023-03-15T04:20:38.020Z,-0.60
2023-03-15T04:25:41.758Z,-0.84
2023-03-15T04:30:45.600Z,-0.88
2023-03-15T04:35:49.145Z,-0.95
2023-03-15T04:40:52.241Z,-0.98
2023-03-15T04:45:56.149Z,-0.98
2023-03-15T04:50:58.963Z,-0.79
2023-03-15T04:56:04.747Z,-0.75
2023-03-15T05:01:09.101Z,-0.72
2023-03-15T05:06:12.500Z,-0.63
2023-03-15T05:11:15.041Z,-0.60
2023-03-15T05:16:18.590Z,-0.61
2023-03-15T05:21:21.372Z,-0.69
2023-03-15T05:26:23.670Z,-0.67
2023-03-15T05:31:27.604Z,-0.51
2023-03-15T05:36:41.829Z,-0.32
2023-03-15T05:41:47.937Z,-0.17
2023-03-15T05:46:53.009Z,-0.06
2023-03-15T05:51:56.035Z,0.06
2023-03-15T05:56:59.789Z,0.19
2023-03-15T06:02:03.936Z,0.23
2023-03-15T06:07:06.024Z,0.36
2023-03-15T06:12:09.150Z,0.42
2023-03-15T06:17:13.470Z,0.54
2023-03-15T06:22:16.940Z,0.59
2023-03-15T06:27:18.825Z,0.52
2023-03-15T06:32:22.436Z,0.54
2023-03-15T06:37:34.644Z,0.68
2023-03-15T06:42:37.403Z,0.84
2023-03-15T06:47:40.840Z,0.97
2023-03-15T06:52:42.699Z,1.02
2023-03-15T06:57:45.633Z,1.02
2023-03-15T07:02:49.758Z,1.09
2023-03-15T07:07:51.503Z,1.34
2023-03-15T07:12:53.880Z,2.06
2023-03-15T07:17:58.106Z,2.37
2023-03-15T07:23:00.513Z,2.37
2023-03-15T07:28:02.699Z,2.23
2023-03-15T07:33:05.933Z,2.24
2023-03-15T07:38:07.942Z,2.37
2023-03-15T07:43:09.668Z,2.57
2023-03-15T07:48:13.296Z,2.63
2023-03-15T07:53:15.598Z,2.90
2023-03-15T07:58:19.815Z,3.27
2023-03-15T08:03:24.057Z,3.04
2023-03-15T08:08:26.275Z,3.31
2023-03-15T08:13:28.121Z,3.15
2023-03-15T08:18:31.825Z,3.17
2023-03-15T08:23:33.806Z,3.18
2023-03-15T08:28:35.539Z,3.20
2023-03-15T08:33:38.702Z,3.66
2023-03-15T08:38:41.822Z,3.66
2023-03-15T08:43:43.585Z,3.79
2023-03-15T08:48:46.718Z,4.19
2023-03-15T08:53:48.678Z,4.18
2023-03-15T08:58:50.973Z,4.14
2023-03-15T09:03:55.579Z,3.99
2023-03-15T09:08:57.804Z,4.12
2023-03-15T09:13:59.583Z,4.25
2023-03-15T09:19:03.182Z,4.23
2023-03-15T09:24:06.062Z,4.23
2023-03-15T09:29:08.554Z,4.55
2023-03-15T09:34:12.066Z,4.48
2023-03-15T09:39:17.700Z,4.87
2023-03-15T09:44:35.552Z,5.56
2023-03-15T09:49:45.735Z,5.24
2023-03-15T09:54:52.518Z,4.58
2023-03-15T09:59:56.487Z,4.54
2023-03-15T10:05:09.203Z,5.67
2023-03-15T10:10:17.979Z,5.29
2023-03-15T10:15:39.699Z,6.25
2023-03-15T10:20:47.535Z,11.87
2023-03-15T10:25:51.741Z,8.71
2023-03-15T10:31:00.651Z,6.03
2023-03-15T10:36:15.003Z,5.11
2023-03-15T10:41:29.217Z,4.42
2023-03-15T10:46:31.347Z,5.19
2023-03-15T10:51:39.418Z,5.57
2023-03-15T10:56:46.725Z,7.79
2023-03-15T11:01:51.186Z,8.62
2023-03-15T11:07:02.475Z,8.30
2023-03-15T11:12:06.850Z,10.48
2023-03-15T11:17:16.545Z,12.98
2023-03-15T11:22:20.259Z,9.67
2023-03-15T11:27:24.959Z,7.05
2023-03-15T11:32:30.236Z,6.20
2023-03-15T11:37:40.593Z,6.15
2023-03-15T11:42:48.592Z,6.68
2023-03-15T11:47:56.131Z,6.82
2023-03-15T11:53:00.848Z,6.72
2023-03-15T11:58:27.693Z,7.74
2023-03-15T12:03:37.924Z,8.18
2023-03-15T12:08:47.512Z,7.52
2023-03-15T12:14:03.232Z,7.35
2023-03-15T12:19:11.534Z,7.73
2023-03-15T12:24:23.487Z,8.28
2023-03-15T12:29:28.861Z,7.87
2023-03-15T12:34:38.062Z,7.35
2023-03-15T12:39:44.471Z,7.42
2023-03-15T12:44:46.572Z,7.34
2023-03-15T12:49:48.814Z,7.54
2023-03-15T12:55:01.424Z,8.56
2023-03-15T13:00:05.901Z,8.06
2023-03-15T13:05:17.190Z,8.50
2023-03-15T13:10:39.938Z,8.64
2023-03-15T13:15:50.030Z,8.68
2023-03-15T13:21:09.112Z,8.11
2023-03-15T13:26:29.950Z,7.91
2023-03-15T13:31:32.774Z,8.47
2023-03-15T13:36:40.886Z,8.08
2023-03-15T13:41:44.584Z,7.08
2023-03-15T13:46:48.647Z,6.64
2023-03-15T13:51:53.712Z,7.08
2023-03-15T13:57:03.191Z,7.18
2023-03-15T14:02:06.326Z,7.39
2023-03-15T14:07:29.726Z,7.40
2023-03-15T14:12:33.219Z,7.33
2023-03-15T14:17:35.373Z,7.46
2023-03-15T14:22:42.087Z,7.78
2023-03-15T14:27:45.599Z,7.83
2023-03-15T14:32:53.510Z,7.95
2023-03-15T14:38:03.854Z,7.32
2023-03-15T14:43:08.660Z,6.68
2023-03-15T14:48:15.658Z,7.28
2023-03-15T14:53:20.970Z,7.67
2023-03-15T14:58:24.800Z,7.57
2023-03-15T15:03:34.080Z,7.82
2023-03-15T15:08:38.452Z,7.41
2023-03-15T15:13:42.853Z,7.63
2023-03-15T15:18:44.647Z,7.46
2023-03-15T15:23:57.806Z,7.60
2023-03-15T15:29:01.572Z,7.15
2023-03-15T15:34:04.016Z,6.72
2023-03-15T15:39:20.599Z,6.30
2023-03-15T15:44:24.748Z,6.27
2023-03-15T15:49:26.897Z,6.30
2023-03-15T15:54:35.852Z,6.26
2023-03-15T15:59:39.347Z,6.12
2023-03-15T16:04:42.469Z,6.31
2023-03-15T16:09:46.715Z,6.70
2023-03-15T16:14:50.232Z,6.05
2023-03-15T16:19:53.634Z,6.03
2023-03-15T16:24:58.332Z,5.43
2023-03-15T16:30:02.627Z,5.26
2023-03-15T16:35:06.117Z,5.07
2023-03-15T16:40:15.559Z,4.89
2023-03-15T16:45:19.768Z,4.67
2023-03-15T16:50:21.916Z,4.51
2023-03-15T16:55:26.345Z,4.37
2023-03-15T17:00:30.133Z,4.16
2023-03-15T17:05:33.000Z,4.07
2023-03-15T17:10:36.041Z,3.87
2023-03-15T17:15:40.573Z,3.73
2023-03-15T17:20:43.423Z,3.48
2023-03-15T17:25:45.273Z,3.37
2023-03-15T17:30:51.603Z,3.34
2023-03-15T17:35:57.531Z,3.23
2023-03-15T17:40:59.687Z,3.11
2023-03-15T17:46:03.343Z,3.03
2023-03-15T17:51:05.743Z,3.18
2023-03-15T17:56:08.361Z,3.06
2023-03-15T18:01:15.763Z,2.94
2023-03-15T18:06:19.476Z,2.87
2023-03-15T18:11:25.508Z,2.76
2023-03-15T18:16:29.453Z,2.56
2023-03-15T18:21:31.836Z,2.52
2023-03-15T18:26:33.934Z,2.41
2023-03-15T18:31:37.552Z,2.27
2023-03-15T18:36:39.499Z,2.08
2023-03-15T18:41:42.049Z,2.04
2023-03-15T18:46:45.651Z,1.91
2023-03-15T18:51:48.050Z,1.81
2023-03-15T18:56:50.792Z,1.76
2023-03-15T19:01:53.977Z,1.80
2023-03-15T19:06:56.569Z,1.77
2023-03-15T19:11:59.104Z,1.74
2023-03-15T19:17:02.856Z,1.55
2023-03-15T19:22:08.708Z,1.47
2023-03-15T19:27:11.532Z,1.27
2023-03-15T19:32:15.133Z,0.97
2023-03-15T19:37:19.601Z,0.81
2023-03-15T19:42:23.222Z,0.87
2023-03-15T19:47:27.100Z,0.54
2023-03-15T19:52:30.311Z,0.40
2023-03-15T19:57:32.738Z,0.41
2023-03-15T20:02:36.509Z,0.37
2023-03-15T20:07:39.742Z,0.30
2023-03-15T20:12:42.679Z,0.21
2023-03-15T20:17:48.003Z,-0.02
2023-03-15T20:22:50.869Z,-0.09
2023-03-15T20:27:53.365Z,-0.09
2023-03-15T20:32:57.284Z,-0.14
2023-03-15T20:38:00.187Z,-0.19
2023-03-15T20:43:03.166Z,-0.22
2023-03-15T20:48:07.283Z,-0.29
2023-03-15T20:53:09.586Z,-0.36
2023-03-15T20:58:11.968Z,-0.32
2023-03-15T21:03:16.473Z,-0.42
2023-03-15T21:08:18.465Z,-0.42
2023-03-15T21:13:20.936Z,-0.52
2023-03-15T21:18:25.049Z,-0.77
2023-03-15T21:23:29.026Z,-1.07
2023-03-15T21:28:31.482Z,-1.02
2023-03-15T21:33:35.260Z,-1.06
2023-03-15T21:38:37.655Z,-1.20
2023-03-15T21:43:39.710Z,-1.19
2023-03-15T21:48:42.885Z,-1.03
2023-03-15T21:53:44.579Z,-1.14
2023-03-15T21:58:46.679Z,-1.29
2023-03-15T22:03:51.248Z,-1.48
2023-03-15T22:08:53.332Z,-1.39
2023-03-15T22:13:55.204Z,-1.41
2023-03-15T22:18:59.202Z,-1.72
2023-03-15T22:24:01.364Z,-1.83
2023-03-15T22:29:03.496Z,-1.95
2023-03-15T22:34:06.980Z,-1.97
2023-03-15T22:39:09.729Z,-1.89
2023-03-15T22:44:11.947Z,-2.01
2023-03-15T22:49:15.006Z,-2.13
2023-03-15T22:54:16.717Z,-2.14
2023-03-15T22:59:18.438Z,-2.18
2023-03-15T23:04:22.457Z,-2.16
2023-03-15T23:09:24.738Z,-2.32
2023-03-15T23:14:27.044Z,-2.27
2023-03-15T23:19:30.765Z,-2.32
2023-03-15T23:24:33.022Z,-2.49
2023-03-15T23:29:47.133Z,-2.55
2023-03-15T23:34:57.583Z,-2.86
2023-03-15T23:39:59.684Z,-2.81
2023-03-15T23:45:01.414Z,-2.80
2023-03-15T23:50:05.887Z,-2.86
2023-03-15T23:55:08.724Z,-2.99
